Terminal Aerodrome Forecast
Issued by NWS

Home | Current Version | Previous Version | Text Only | Print | Product List | Glossary On
Versions: 1 2 3 4 5 6 7 8 9 10 11 12 13 14 15 16 17 18 19 20 21 22 23 24
000
FTUS41 KBUF 211400 AAA
TAFJHW
TAF AMD
KJHW 211436Z 2115/2212 19008KT P6SM SCT200
     FM211900 25008KT P6SM BKN150
     FM220500 21010KT P6SM BKN100
     FM220900 22010KT 6SM -SHRA OVC035
     FM221100 24012KT 6SM -SHRA OVC015
      AMD LTD TO CLD VIS AND WIND=

USA.gov is the U.S. government's official web portal to all federal, state and local government web resources and services.